createdAt,value
2018-01-27T00:01:20.129Z,-1.23
2018-01-27T00:03:48.546Z,-1.15
2018-01-27T00:06:17.146Z,-1.22
2018-01-27T00:08:45.574Z,-1.31
2018-01-27T00:11:13.984Z,-1.37
2018-01-27T00:13:51.228Z,-1.23
2018-01-27T00:16:19.636Z,-0.97
2018-01-27T00:18:48.141Z,-0.89
2018-01-27T00:21:16.641Z,-0.86
2018-01-27T00:23:45.050Z,-0.86
2018-01-27T00:26:13.553Z,-0.92
2018-01-27T00:28:42.026Z,-0.82
2018-01-27T00:31:10.484Z,-0.85
2018-01-27T00:33:38.950Z,-0.87
2018-01-27T00:36:07.380Z,-0.87
2018-01-27T00:38:35.894Z,-0.80
2018-01-27T00:41:04.323Z,-0.83
2018-01-27T00:43:32.776Z,-0.82
2018-01-27T00:46:01.277Z,-0.87
2018-01-27T00:48:29.689Z,-1.03
2018-01-27T00:50:58.129Z,-1.13
2018-01-27T00:53:26.585Z,-1.08
2018-01-27T00:55:55.101Z,-1.18
2018-01-27T00:58:23.530Z,-1.21
2018-01-27T01:00:52.038Z,-1.15
2018-01-27T01:03:20.541Z,-1.11
2018-01-27T01:05:48.957Z,-1.19
2018-01-27T01:08:17.417Z,-1.13
2018-01-27T01:10:45.920Z,-1.08
2018-01-27T01:13:14.422Z,-1.09
2018-01-27T01:15:42.935Z,-1.08
2018-01-27T01:18:11.384Z,-1.08
2018-01-27T01:20:39.889Z,-1.36
2018-01-27T01:23:08.304Z,-1.52
2018-01-27T01:25:36.775Z,-1.49
2018-01-27T01:28:05.253Z,-1.76
2018-01-27T01:30:33.699Z,-1.65
2018-01-27T01:33:02.143Z,-1.51
2018-01-27T01:35:30.598Z,-1.57
2018-01-27T01:37:59.086Z,-1.46
2018-01-27T01:40:27.528Z,-1.39
2018-01-27T01:43:01.406Z,-1.37
2018-01-27T01:48:11.049Z,-1.33
2018-01-27T01:50:39.470Z,-1.34
2018-01-27T01:53:07.880Z,-1.34
2018-01-27T01:55:36.401Z,-1.34
2018-01-27T01:58:04.834Z,-1.33
2018-01-27T02:00:33.298Z,-1.36
2018-01-27T02:03:01.752Z,-1.41
2018-01-27T02:05:30.242Z,-1.62
2018-01-27T02:07:58.705Z,-1.86
2018-01-27T02:10:27.243Z,-2.20
2018-01-27T02:12:55.845Z,-1.90
2018-01-27T02:15:24.253Z,-1.76
2018-01-27T02:17:52.762Z,-1.61
2018-01-27T02:20:21.170Z,-1.57
2018-01-27T02:22:49.681Z,-1.53
2018-01-27T02:25:18.145Z,-1.51
2018-01-27T02:27:46.593Z,-1.52
2018-01-27T02:30:15.029Z,-1.50
2018-01-27T02:36:17.715Z,-1.52
2018-01-27T02:38:46.117Z,-1.51
2018-01-27T02:41:14.574Z,-1.55
2018-01-27T02:43:43.088Z,-1.62
2018-01-27T02:46:11.625Z,-1.59
2018-01-27T02:48:40.055Z,-1.59
2018-01-27T02:51:08.600Z,-1.60
2018-01-27T02:53:37.034Z,-1.58
2018-01-27T02:56:05.465Z,-1.57
2018-01-27T02:58:33.981Z,-1.57
2018-01-27T03:01:02.477Z,-1.61
2018-01-27T03:03:30.891Z,-1.63
2018-01-27T03:05:59.405Z,-1.60
2018-01-27T03:08:27.824Z,-1.60
2018-01-27T03:10:56.269Z,-1.60
2018-01-27T03:13:24.727Z,-1.60
2018-01-27T03:15:53.233Z,-1.59
2018-01-27T03:18:21.652Z,-1.71
2018-01-27T03:20:50.158Z,-1.60
2018-01-27T03:23:18.576Z,-1.74
2018-01-27T03:25:46.998Z,-1.93
2018-01-27T03:28:15.530Z,-1.97
2018-01-27T03:30:43.999Z,-1.83
2018-01-27T03:33:12.462Z,-1.84
2018-01-27T03:35:40.889Z,-1.81
2018-01-27T03:38:09.393Z,-1.77
2018-01-27T03:40:37.812Z,-1.79
2018-01-27T03:43:06.414Z,-1.94
2018-01-27T03:45:34.841Z,-1.95
2018-01-27T03:48:03.297Z,-1.78
2018-01-27T03:50:31.802Z,-1.78
2018-01-27T03:53:00.205Z,-1.76
2018-01-27T03:55:28.664Z,-1.78
2018-01-27T03:57:57.157Z,-1.80
2018-01-27T04:00:25.676Z,-1.77
2018-01-27T04:02:54.108Z,-1.77
2018-01-27T04:05:23.014Z,-1.78
2018-01-27T04:07:51.481Z,-1.83
2018-01-27T04:10:19.876Z,-1.83
2018-01-27T04:12:48.325Z,-1.82
2018-01-27T04:15:16.792Z,-1.85
2018-01-27T04:17:45.240Z,-2.02
2018-01-27T04:20:13.647Z,-1.93
2018-01-27T04:22:42.056Z,-1.91
2018-01-27T04:25:10.509Z,-1.90
2018-01-27T04:27:38.969Z,-2.15
2018-01-27T04:30:07.412Z,-2.21
2018-01-27T04:32:35.872Z,-2.47
2018-01-27T04:35:04.369Z,-2.25
2018-01-27T04:37:32.794Z,-2.17
2018-01-27T04:40:01.260Z,-2.15
2018-01-27T04:42:29.718Z,-2.18
2018-01-27T04:44:58.129Z,-2.18
2018-01-27T04:47:26.573Z,-2.13
2018-01-27T04:49:54.965Z,-2.11
2018-01-27T04:52:23.396Z,-2.10
2018-01-27T04:54:51.867Z,-2.07
2018-01-27T04:57:20.361Z,-2.12
2018-01-27T04:59:48.818Z,-2.09
2018-01-27T05:02:17.225Z,-2.08
2018-01-27T05:04:45.729Z,-2.15
2018-01-27T05:07:14.180Z,-2.57
2018-01-27T05:09:42.597Z,-2.29
2018-01-27T05:12:11.053Z,-2.20
2018-01-27T05:14:39.484Z,-2.45
2018-01-27T05:17:07.986Z,-2.35
2018-01-27T05:19:36.437Z,-2.25
2018-01-27T05:22:04.877Z,-2.21
2018-01-27T05:24:33.351Z,-2.15
2018-01-27T05:27:01.799Z,-2.12
2018-01-27T05:29:30.211Z,-2.08
2018-01-27T05:31:58.648Z,-2.07
2018-01-27T05:34:27.030Z,-2.06
2018-01-27T05:36:55.483Z,-2.13
2018-01-27T05:39:23.924Z,-2.08
2018-01-27T05:41:52.415Z,-2.19
2018-01-27T05:44:20.870Z,-2.14
2018-01-27T05:46:49.280Z,-2.05
2018-01-27T05:49:17.687Z,-2.00
2018-01-27T05:51:46.131Z,-1.91
2018-01-27T05:54:14.634Z,-1.90
2018-01-27T05:56:43.082Z,-1.98
2018-01-27T05:59:11.552Z,-1.85
2018-01-27T06:01:40.026Z,-1.79
2018-01-27T06:04:08.482Z,-1.76
2018-01-27T06:06:36.947Z,-1.81
2018-01-27T06:09:05.372Z,-1.74
2018-01-27T06:11:33.889Z,-1.66
2018-01-27T06:14:02.336Z,-1.61
2018-01-27T06:16:30.732Z,-1.52
2018-01-27T06:18:59.149Z,-1.41
2018-01-27T06:21:27.665Z,-1.31
2018-01-27T06:23:56.072Z,-1.19
2018-01-27T06:26:24.569Z,-1.08
2018-01-27T06:28:52.999Z,-0.99
2018-01-27T06:31:21.439Z,-0.97
2018-01-27T06:33:49.855Z,-0.84
2018-01-27T06:36:18.362Z,-1.05
2018-01-27T06:38:46.808Z,-0.95
2018-01-27T06:41:15.245Z,-1.03
2018-01-27T06:43:43.713Z,-1.05
2018-01-27T06:46:12.122Z,-0.79
2018-01-27T06:48:40.580Z,-0.46
2018-01-27T06:51:09.053Z,-0.21
2018-01-27T06:53:37.568Z,-0.01
2018-01-27T06:56:05.977Z,0.17
2018-01-27T06:58:34.417Z,0.29
2018-01-27T07:01:02.865Z,0.40
2018-01-27T07:03:31.254Z,0.50
2018-01-27T07:05:59.678Z,0.62
2018-01-27T07:08:28.112Z,0.70
2018-01-27T07:10:56.567Z,0.73
2018-01-27T07:13:25.010Z,0.81
2018-01-27T07:15:53.400Z,0.84
2018-01-27T07:18:21.848Z,0.90
2018-01-27T07:20:50.313Z,0.99
2018-01-27T07:23:18.745Z,0.97
2018-01-27T07:25:47.229Z,0.68
2018-01-27T07:28:15.711Z,0.98
2018-01-27T07:30:44.112Z,0.91
2018-01-27T07:33:12.598Z,0.80
2018-01-27T07:35:41.065Z,1.05
2018-01-27T07:38:09.525Z,1.28
2018-01-27T07:40:38.013Z,1.45
2018-01-27T07:43:06.456Z,1.61
2018-01-27T07:45:34.992Z,1.72
2018-01-27T07:48:03.397Z,1.81
2018-01-27T07:50:31.796Z,1.91
2018-01-27T07:53:00.249Z,1.99
2018-01-27T07:55:28.694Z,2.04
2018-01-27T07:57:57.144Z,2.12
2018-01-27T08:00:25.521Z,2.15
2018-01-27T08:02:54.017Z,2.13
2018-01-27T08:05:23.165Z,1.90
2018-01-27T08:07:51.575Z,1.61
2018-01-27T08:10:20.030Z,1.82
2018-01-27T08:12:48.505Z,2.02
2018-01-27T08:15:16.960Z,2.10
2018-01-27T08:17:45.389Z,2.09
2018-01-27T08:20:13.845Z,2.32
2018-01-27T08:22:42.265Z,2.28
2018-01-27T08:25:10.677Z,2.41
2018-01-27T08:27:39.112Z,2.58
2018-01-27T08:30:07.501Z,2.54
2018-01-27T08:32:36.004Z,2.61
2018-01-27T08:35:04.463Z,2.53
2018-01-27T08:37:32.858Z,2.34
2018-01-27T08:40:01.277Z,2.16
2018-01-27T08:42:29.732Z,2.27
2018-01-27T08:44:58.225Z,2.60
2018-01-27T08:47:27.582Z,2.80
2018-01-27T08:49:56.009Z,2.97
2018-01-27T08:52:24.457Z,3.12
2018-01-27T08:54:52.906Z,3.03
2018-01-27T08:57:21.378Z,3.00
2018-01-27T08:59:49.801Z,3.12
2018-01-27T09:02:18.250Z,3.35
2018-01-27T09:04:46.699Z,3.22
2018-01-27T09:07:15.124Z,3.36
2018-01-27T09:09:43.610Z,3.55
2018-01-27T09:12:12.000Z,3.63
2018-01-27T09:14:40.489Z,3.53
2018-01-27T09:17:08.949Z,3.57
2018-01-27T09:19:37.417Z,3.48
2018-01-27T09:22:05.844Z,3.72
2018-01-27T09:24:34.321Z,3.91
2018-01-27T09:27:02.810Z,4.00
2018-01-27T09:29:31.297Z,4.01
2018-01-27T09:31:59.741Z,3.87
2018-01-27T09:34:28.194Z,3.67
2018-01-27T09:36:56.645Z,3.85
2018-01-27T09:39:25.099Z,4.05
2018-01-27T09:41:53.593Z,4.21
2018-01-27T09:44:21.992Z,4.23
2018-01-27T09:46:50.399Z,4.31
2018-01-27T09:49:18.823Z,4.41
2018-01-27T09:51:47.233Z,4.47
2018-01-27T09:54:15.700Z,4.47
2018-01-27T09:56:44.188Z,4.63
2018-01-27T09:59:12.616Z,4.72
2018-01-27T10:01:41.021Z,4.72
2018-01-27T10:04:09.479Z,4.77
2018-01-27T10:06:37.940Z,4.77
2018-01-27T10:09:06.433Z,4.82
2018-01-27T10:11:34.867Z,4.64
2018-01-27T10:14:03.317Z,4.72
2018-01-27T10:16:31.825Z,4.75
2018-01-27T10:19:00.217Z,4.61
2018-01-27T10:21:28.657Z,4.66
2018-01-27T10:23:57.246Z,4.63
2018-01-27T10:26:25.705Z,4.55
2018-01-27T10:28:54.104Z,4.75
2018-01-27T10:31:22.524Z,4.64
2018-01-27T10:33:50.916Z,4.62
2018-01-27T10:36:19.429Z,4.53
2018-01-27T10:38:47.873Z,4.80
2018-01-27T10:41:16.335Z,4.99
2018-01-27T10:43:44.769Z,5.09
2018-01-27T10:46:13.245Z,5.16
2018-01-27T10:48:41.724Z,5.20
2018-01-27T10:51:10.196Z,5.23
2018-01-27T10:53:38.592Z,4.95
2018-01-27T10:56:07.041Z,5.17
2018-01-27T10:58:35.497Z,5.06
2018-01-27T11:01:03.937Z,4.88
2018-01-27T11:03:32.404Z,5.21
2018-01-27T11:06:00.832Z,5.35
2018-01-27T11:08:29.280Z,5.42
2018-01-27T11:10:57.715Z,5.15
2018-01-27T11:13:26.150Z,5.15
2018-01-27T11:15:54.553Z,5.39
2018-01-27T11:18:22.954Z,5.29
2018-01-27T11:20:51.413Z,5.34
2018-01-27T11:23:19.817Z,5.36
2018-01-27T11:25:48.214Z,5.08
2018-01-27T11:28:16.644Z,5.38
2018-01-27T11:30:45.185Z,5.35
2018-01-27T11:33:13.616Z,5.24
2018-01-27T11:35:42.132Z,5.52
2018-01-27T11:38:10.590Z,5.58
2018-01-27T11:40:38.981Z,5.62
2018-01-27T11:43:07.493Z,5.69
2018-01-27T11:45:35.949Z,5.63
2018-01-27T11:48:04.332Z,5.76
2018-01-27T11:50:32.754Z,5.83
2018-01-27T11:53:01.277Z,5.85
2018-01-27T11:55:29.729Z,5.87
2018-01-27T11:57:58.177Z,5.53
2018-01-27T12:00:26.604Z,5.70
2018-01-27T12:02:55.121Z,5.80
2018-01-27T12:05:23.525Z,5.93
2018-01-27T12:07:52.009Z,5.90
2018-01-27T12:10:20.430Z,5.63
2018-01-27T12:12:49.304Z,5.83
2018-01-27T12:15:17.712Z,5.92
2018-01-27T12:17:46.153Z,6.02
2018-01-27T12:20:14.629Z,6.04
2018-01-27T12:22:43.065Z,6.07
2018-01-27T12:25:11.477Z,6.08
2018-01-27T12:27:39.898Z,6.16
2018-01-27T12:30:08.528Z,6.21
2018-01-27T12:32:36.981Z,6.18
2018-01-27T12:35:05.416Z,6.01
2018-01-27T12:37:33.852Z,6.06
2018-01-27T12:40:02.285Z,6.13
2018-01-27T12:42:30.682Z,6.03
2018-01-27T12:44:59.198Z,5.83
2018-01-27T12:47:27.609Z,6.12
2018-01-27T12:49:56.014Z,6.19
2018-01-27T12:52:24.501Z,6.11
2018-01-27T12:54:52.981Z,6.14
2018-01-27T12:57:21.443Z,6.12
2018-01-27T12:59:49.833Z,6.09
2018-01-27T13:02:18.234Z,6.26
2018-01-27T13:04:46.656Z,6.26
2018-01-27T13:07:15.053Z,6.10
2018-01-27T13:09:43.545Z,6.32
2018-01-27T13:12:12.009Z,6.32
2018-01-27T13:14:40.455Z,6.16
2018-01-27T13:17:08.881Z,6.28
2018-01-27T13:19:37.360Z,6.33
2018-01-27T13:22:05.844Z,6.37
2018-01-27T13:24:34.281Z,6.30
2018-01-27T13:27:02.677Z,6.37
2018-01-27T13:29:31.133Z,6.26
2018-01-27T13:31:59.621Z,6.38
2018-01-27T13:34:28.019Z,6.35
2018-01-27T13:36:56.491Z,6.42
2018-01-27T13:39:24.952Z,6.42
2018-01-27T13:41:53.394Z,6.35
2018-01-27T13:44:21.787Z,6.43
2018-01-27T13:46:50.220Z,6.38
2018-01-27T13:49:18.603Z,6.36
2018-01-27T13:51:47.057Z,6.33
2018-01-27T13:54:15.490Z,6.40
2018-01-27T13:56:43.893Z,6.39
2018-01-27T13:59:12.405Z,6.39
2018-01-27T14:01:40.853Z,6.29
2018-01-27T14:04:09.245Z,6.40
2018-01-27T14:06:37.728Z,6.31
2018-01-27T14:09:06.117Z,6.36
2018-01-27T14:11:34.533Z,6.37
2018-01-27T14:14:03.003Z,6.38
2018-01-27T14:16:31.403Z,6.39
2018-01-27T14:18:59.906Z,6.34
2018-01-27T14:21:28.342Z,6.33
2018-01-27T14:23:56.834Z,6.30
2018-01-27T14:26:25.237Z,6.29
2018-01-27T14:28:53.666Z,6.15
2018-01-27T14:31:22.121Z,6.20
2018-01-27T14:33:50.645Z,6.15
2018-01-27T14:36:19.097Z,6.12
2018-01-27T14:38:47.506Z,6.12
2018-01-27T14:41:15.937Z,6.11
2018-01-27T14:43:44.441Z,6.08
2018-01-27T14:46:12.929Z,6.08
2018-01-27T14:48:41.455Z,6.05
2018-01-27T14:51:09.896Z,6.01
2018-01-27T14:53:38.357Z,5.96
2018-01-27T14:56:06.830Z,5.90
2018-01-27T14:58:35.262Z,5.85
2018-01-27T15:01:03.758Z,5.81
2018-01-27T15:03:32.184Z,5.75
2018-01-27T15:06:00.629Z,5.66
2018-01-27T15:08:29.025Z,5.68
2018-01-27T15:10:57.465Z,5.67
2018-01-27T15:13:25.862Z,5.61
2018-01-27T15:15:54.362Z,5.55
2018-01-27T15:18:22.821Z,5.45
2018-01-27T15:20:51.225Z,5.38
2018-01-27T15:23:19.661Z,5.35
2018-01-27T15:25:48.089Z,5.22
2018-01-27T15:28:16.537Z,5.12
2018-01-27T15:30:44.934Z,5.06
2018-01-27T15:33:13.337Z,4.96
2018-01-27T15:35:41.749Z,4.90
2018-01-27T15:38:10.257Z,4.71
2018-01-27T15:40:38.749Z,4.62
2018-01-27T15:43:07.145Z,4.65
2018-01-27T15:45:35.583Z,4.58
2018-01-27T15:48:04.026Z,4.48
2018-01-27T15:50:32.452Z,4.43
2018-01-27T15:53:00.854Z,4.37
2018-01-27T15:55:29.306Z,4.29
2018-01-27T15:57:57.732Z,4.20
2018-01-27T16:00:26.174Z,4.13
2018-01-27T16:02:54.645Z,4.06
2018-01-27T16:05:23.392Z,4.01
2018-01-27T16:07:51.881Z,3.98
2018-01-27T16:10:20.385Z,3.91
2018-01-27T16:12:48.823Z,3.89
2018-01-27T16:15:17.313Z,3.84
2018-01-27T16:17:45.763Z,3.80
2018-01-27T16:20:14.258Z,3.70
2018-01-27T16:22:42.689Z,3.57
2018-01-27T16:25:11.140Z,3.63
2018-01-27T16:27:39.568Z,3.59
2018-01-27T16:30:08.065Z,3.51
2018-01-27T16:32:36.528Z,3.42
2018-01-27T16:35:04.961Z,3.38
2018-01-27T16:37:33.365Z,3.22
2018-01-27T16:40:01.865Z,3.14
2018-01-27T16:42:30.257Z,3.15
2018-01-27T16:44:58.740Z,3.13
2018-01-27T16:47:27.241Z,3.08
2018-01-27T16:49:55.677Z,3.02
2018-01-27T16:52:24.069Z,2.98
2018-01-27T16:54:52.524Z,2.92
2018-01-27T16:57:20.992Z,2.88
2018-01-27T16:59:49.384Z,2.83
2018-01-27T17:02:17.880Z,2.77
2018-01-27T17:04:46.365Z,2.73
2018-01-27T17:07:14.862Z,2.70
2018-01-27T17:09:43.292Z,2.54
2018-01-27T17:12:11.749Z,2.58
2018-01-27T17:14:40.157Z,2.55
2018-01-27T17:17:08.553Z,2.51
2018-01-27T17:19:36.994Z,2.48
2018-01-27T17:22:05.396Z,2.41
2018-01-27T17:24:33.832Z,2.37
2018-01-27T17:27:02.301Z,2.34
2018-01-27T17:29:30.771Z,2.30
2018-01-27T17:31:59.192Z,2.27
2018-01-27T17:34:27.725Z,2.18
2018-01-27T17:36:56.126Z,2.19
2018-01-27T17:39:24.521Z,2.11
2018-01-27T17:41:52.956Z,2.02
2018-01-27T17:44:21.454Z,1.93
2018-01-27T17:46:49.846Z,2.02
2018-01-27T17:49:18.274Z,1.99
2018-01-27T17:51:46.656Z,1.95
2018-01-27T17:54:15.119Z,1.93
2018-01-27T17:56:43.573Z,1.92
2018-01-27T17:59:12.069Z,1.86
2018-01-27T18:01:40.513Z,1.86
2018-01-27T18:04:08.973Z,1.87
2018-01-27T18:06:37.437Z,1.85
2018-01-27T18:09:05.830Z,1.80
2018-01-27T18:11:34.332Z,1.74
2018-01-27T18:14:02.761Z,1.68
2018-01-27T18:16:31.169Z,1.56
2018-01-27T18:18:59.647Z,1.56
2018-01-27T18:21:28.078Z,1.66
2018-01-27T18:23:56.468Z,1.57
2018-01-27T18:26:24.915Z,1.60
2018-01-27T18:28:53.344Z,1.58
2018-01-27T18:31:21.746Z,1.54
2018-01-27T18:33:50.292Z,1.49
2018-01-27T18:36:18.879Z,1.46
2018-01-27T18:38:47.314Z,1.42
2018-01-27T18:41:15.753Z,1.41
2018-01-27T18:43:44.168Z,1.35
2018-01-27T18:46:12.555Z,1.20
2018-01-27T18:48:41.019Z,1.28
2018-01-27T18:51:09.461Z,1.31
2018-01-27T18:53:37.975Z,1.31
2018-01-27T18:56:06.382Z,1.30
2018-01-27T18:58:34.835Z,1.23
2018-01-27T19:01:03.293Z,1.26
2018-01-27T19:03:31.749Z,1.24
2018-01-27T19:06:00.211Z,1.23
2018-01-27T19:08:28.666Z,1.21
2018-01-27T19:10:57.061Z,1.19
2018-01-27T19:13:25.500Z,1.18
2018-01-27T19:15:53.971Z,1.14
2018-01-27T19:18:22.480Z,1.15
2018-01-27T19:20:50.934Z,1.07
2018-01-27T19:23:19.389Z,1.09
2018-01-27T19:25:47.897Z,1.11
2018-01-27T19:28:16.366Z,1.11
2018-01-27T19:30:44.836Z,1.11
2018-01-27T19:33:13.262Z,1.05
2018-01-27T19:35:41.741Z,0.97
2018-01-27T19:38:10.140Z,1.01
2018-01-27T19:40:38.630Z,1.00
2018-01-27T19:43:07.081Z,0.95
2018-01-27T19:45:35.599Z,0.92
2018-01-27T19:48:04.027Z,0.93
2018-01-27T19:50:32.541Z,0.90
2018-01-27T19:53:00.950Z,0.82
2018-01-27T19:55:29.386Z,0.88
2018-01-27T19:57:57.885Z,0.88
2018-01-27T20:00:26.337Z,0.87
2018-01-27T20:02:54.733Z,0.86
2018-01-27T20:05:23.252Z,0.84
2018-01-27T20:07:51.724Z,0.87
2018-01-27T20:10:20.141Z,0.86
2018-01-27T20:12:48.629Z,0.81
2018-01-27T20:15:17.080Z,0.76
2018-01-27T20:17:45.535Z,0.84
2018-01-27T20:20:13.986Z,0.85
2018-01-27T20:22:42.494Z,0.84
2018-01-27T20:25:11.022Z,0.83
2018-01-27T20:27:39.473Z,0.81
2018-01-27T20:30:07.945Z,0.82
2018-01-27T20:32:36.381Z,0.81
2018-01-27T20:35:04.889Z,0.81
2018-01-27T20:37:33.404Z,0.89
2018-01-27T20:40:01.845Z,0.90
2018-01-27T20:42:30.354Z,0.85
2018-01-27T20:44:58.770Z,0.84
2018-01-27T20:47:27.228Z,0.92
2018-01-27T20:49:55.734Z,0.85
2018-01-27T20:52:24.250Z,0.97
2018-01-27T20:54:52.723Z,0.99
2018-01-27T20:57:21.210Z,0.96
2018-01-27T20:59:49.704Z,1.04
2018-01-27T21:02:18.118Z,1.10
2018-01-27T21:04:46.673Z,1.10
2018-01-27T21:07:15.140Z,1.13
2018-01-27T21:09:43.565Z,1.13
2018-01-27T21:12:12.005Z,1.13
2018-01-27T21:14:40.509Z,1.12
2018-01-27T21:17:09.001Z,1.07
2018-01-27T21:19:37.516Z,0.98
2018-01-27T21:22:05.996Z,0.98
2018-01-27T21:24:34.497Z,0.99
2018-01-27T21:27:02.965Z,0.91
2018-01-27T21:29:31.423Z,0.88
2018-01-27T21:31:59.856Z,0.81
2018-01-27T21:34:28.269Z,0.85
2018-01-27T21:36:56.769Z,0.72
2018-01-27T21:39:25.173Z,0.78
2018-01-27T21:41:53.626Z,0.80
2018-01-27T21:44:22.096Z,0.79
2018-01-27T21:46:50.509Z,0.77
2018-01-27T21:49:18.962Z,0.69
2018-01-27T21:51:47.446Z,0.71
2018-01-27T21:54:15.929Z,0.69
2018-01-27T21:56:44.373Z,0.67
2018-01-27T21:59:12.845Z,0.65
2018-01-27T22:01:41.308Z,0.53
2018-01-27T22:04:09.804Z,0.56
2018-01-27T22:06:38.257Z,0.27
2018-01-27T22:09:06.697Z,0.42
2018-01-27T22:11:35.097Z,0.41
2018-01-27T22:14:03.553Z,0.29
2018-01-27T22:16:31.985Z,0.26
2018-01-27T22:19:00.437Z,0.19
2018-01-27T22:21:28.929Z,0.13
2018-01-27T22:23:57.337Z,0.14
2018-01-27T22:26:25.788Z,0.14
2018-01-27T22:28:54.189Z,0.07
2018-01-27T22:31:22.643Z,-0.02
2018-01-27T22:33:51.117Z,0.03
2018-01-27T22:36:19.633Z,0.09
2018-01-27T22:38:48.041Z,0.13
2018-01-27T22:41:16.461Z,-0.07
2018-01-27T22:43:44.906Z,0.06
2018-01-27T22:46:13.312Z,-0.16
2018-01-27T22:48:41.766Z,-0.31
2018-01-27T22:51:10.189Z,-0.33
2018-01-27T22:53:38.640Z,-0.34
2018-01-27T22:56:07.061Z,-0.31
2018-01-27T22:58:35.536Z,-0.37
2018-01-27T23:01:09.472Z,-0.38
2018-01-27T23:03:37.959Z,-0.33
2018-01-27T23:06:06.527Z,-0.21
2018-01-27T23:08:34.960Z,-0.07
2018-01-27T23:11:03.461Z,-0.08
2018-01-27T23:13:31.980Z,0.05
2018-01-27T23:16:00.479Z,0.11
2018-01-27T23:18:28.928Z,0.12
2018-01-27T23:20:57.373Z,0.14
2018-01-27T23:23:25.875Z,0.18
2018-01-27T23:25:54.290Z,0.17
2018-01-27T23:28:22.726Z,0.16
2018-01-27T23:30:51.168Z,0.14
2018-01-27T23:33:19.577Z,0.13
2018-01-27T23:35:48.070Z,0.10
2018-01-27T23:38:16.473Z,0.05
2018-01-27T23:40:44.949Z,0.01
2018-01-27T23:43:13.392Z,-0.02
2018-01-27T23:45:41.875Z,-0.11
2018-01-27T23:48:10.326Z,-0.43
2018-01-27T23:50:38.776Z,-0.36
2018-01-27T23:53:07.189Z,-0.33
2018-01-27T23:55:35.652Z,-0.33
2018-01-27T23:58:04.169Z,-0.34
